sensor_id;sensor_type;location;lat;lon;timestamp;P1;durP1;ratioP1;P2;durP2;ratioP2
3901;SDS011;1966;49.908;9.156;2023-07-28T00:04:02;4.40;;;4.00;;
3901;SDS011;1966;49.908;9.156;2023-07-28T00:09:06;4.03;;;3.60;;
3901;SDS011;1966;49.908;9.156;2023-07-28T00:14:05;4.43;;;4.03;;
3901;SDS011;1966;49.908;9.156;2023-07-28T00:19:04;4.53;;;3.93;;
3901;SDS011;1966;49.908;9.156;2023-07-28T00:24:04;5.03;;;4.53;;
3901;SDS011;1966;49.908;9.156;2023-07-28T00:29:05;6.77;;;4.27;;
3901;SDS011;1966;49.908;9.156;2023-07-28T00:34:05;5.33;;;4.80;;
3901;SDS011;1966;49.908;9.156;2023-07-28T00:39:04;4.90;;;4.50;;
3901;SDS011;1966;49.908;9.156;2023-07-28T00:44:05;8.60;;;5.00;;
3901;SDS011;1966;49.908;9.156;2023-07-28T00:49:04;5.57;;;5.07;;
3901;SDS011;1966;49.908;9.156;2023-07-28T00:54:03;5.00;;;4.50;;
3901;SDS011;1966;49.908;9.156;2023-07-28T00:59:04;6.47;;;4.90;;
3901;SDS011;1966;49.908;9.156;2023-07-28T01:04:03;5.70;;;5.03;;
3901;SDS011;1966;49.908;9.156;2023-07-28T01:09:03;6.33;;;4.57;;
3901;SDS011;1966;49.908;9.156;2023-07-28T01:14:06;6.30;;;5.10;;
3901;SDS011;1966;49.908;9.156;2023-07-28T01:19:05;5.00;;;4.50;;
3901;SDS011;1966;49.908;9.156;2023-07-28T01:24:05;6.77;;;4.53;;
3901;SDS011;1966;49.908;9.156;2023-07-28T01:29:07;6.10;;;4.83;;
3901;SDS011;1966;49.908;9.156;2023-07-28T01:34:07;5.03;;;4.50;;
3901;SDS011;1966;49.908;9.156;2023-07-28T01:39:06;5.77;;;4.13;;
3901;SDS011;1966;49.908;9.156;2023-07-28T01:44:06;5.10;;;4.53;;
3901;SDS011;1966;49.908;9.156;2023-07-28T01:49:06;4.30;;;3.90;;
3901;SDS011;1966;49.908;9.156;2023-07-28T01:54:05;5.53;;;4.70;;
3901;SDS011;1966;49.908;9.156;2023-07-28T01:59:04;6.47;;;4.83;;
3901;SDS011;1966;49.908;9.156;2023-07-28T02:04:05;7.10;;;5.20;;
3901;SDS011;1966;49.908;9.156;2023-07-28T02:09:04;7.87;;;4.87;;
3901;SDS011;1966;49.908;9.156;2023-07-28T02:14:03;5.20;;;4.80;;
3901;SDS011;1966;49.908;9.156;2023-07-28T02:19:02;5.33;;;4.57;;
3901;SDS011;1966;49.908;9.156;2023-07-28T02:24:03;4.83;;;4.10;;
3901;SDS011;1966;49.908;9.156;2023-07-28T02:29:03;5.70;;;4.10;;
3901;SDS011;1966;49.908;9.156;2023-07-28T02:34:02;8.13;;;4.83;;
3901;SDS011;1966;49.908;9.156;2023-07-28T02:39:01;7.63;;;4.63;;
3901;SDS011;1966;49.908;9.156;2023-07-28T02:44:02;5.80;;;4.73;;
3901;SDS011;1966;49.908;9.156;2023-07-28T02:49:01;4.80;;;4.40;;
3901;SDS011;1966;49.908;9.156;2023-07-28T02:54:01;4.73;;;4.30;;
3901;SDS011;1966;49.908;9.156;2023-07-28T02:59:02;6.30;;;5.07;;
3901;SDS011;1966;49.908;9.156;2023-07-28T03:04:02;5.60;;;4.53;;
3901;SDS011;1966;49.908;9.156;2023-07-28T03:09:01;5.10;;;4.60;;
3901;SDS011;1966;49.908;9.156;2023-07-28T03:14:00;6.60;;;4.30;;
3901;SDS011;1966;49.908;9.156;2023-07-28T03:19:01;5.60;;;4.50;;
3901;SDS011;1966;49.908;9.156;2023-07-28T03:24:00;4.60;;;4.20;;
3901;SDS011;1966;49.908;9.156;2023-07-28T03:28:59;4.93;;;4.53;;
3901;SDS011;1966;49.908;9.156;2023-07-28T03:33:59;4.13;;;3.73;;
3901;SDS011;1966;49.908;9.156;2023-07-28T03:38:59;4.70;;;4.23;;
3901;SDS011;1966;49.908;9.156;2023-07-28T03:43:58;4.40;;;3.80;;
3901;SDS011;1966;49.908;9.156;2023-07-28T03:48:58;4.63;;;3.63;;
3901;SDS011;1966;49.908;9.156;2023-07-28T03:53:59;4.40;;;3.83;;
3901;SDS011;1966;49.908;9.156;2023-07-28T03:58:58;3.70;;;3.40;;
3901;SDS011;1966;49.908;9.156;2023-07-28T04:03:57;5.50;;;3.77;;
3901;SDS011;1966;49.908;9.156;2023-07-28T04:09:02;3.90;;;3.53;;
3901;SDS011;1966;49.908;9.156;2023-07-28T04:14:02;4.40;;;3.60;;
3901;SDS011;1966;49.908;9.156;2023-07-28T04:19:01;3.50;;;3.20;;
3901;SDS011;1966;49.908;9.156;2023-07-28T04:24:00;3.50;;;3.20;;
3901;SDS011;1966;49.908;9.156;2023-07-28T04:29:01;4.77;;;2.73;;
3901;SDS011;1966;49.908;9.156;2023-07-28T04:34:01;3.43;;;3.13;;
3901;SDS011;1966;49.908;9.156;2023-07-28T04:39:01;3.93;;;2.90;;
3901;SDS011;1966;49.908;9.156;2023-07-28T04:44:02;2.77;;;2.57;;
3901;SDS011;1966;49.908;9.156;2023-07-28T04:49:01;3.53;;;2.93;;
3901;SDS011;1966;49.908;9.156;2023-07-28T04:54:00;4.00;;;2.50;;
3901;SDS011;1966;49.908;9.156;2023-07-28T04:59:01;2.60;;;2.40;;
3901;SDS011;1966;49.908;9.156;2023-07-28T05:04:00;2.87;;;2.67;;
3901;SDS011;1966;49.908;9.156;2023-07-28T05:08:59;2.80;;;2.60;;
3901;SDS011;1966;49.908;9.156;2023-07-28T05:13:59;2.70;;;2.50;;
3901;SDS011;1966;49.908;9.156;2023-07-28T05:19:00;4.17;;;2.80;;
3901;SDS011;1966;49.908;9.156;2023-07-28T05:23:59;2.90;;;2.70;;
3901;SDS011;1966;49.908;9.156;2023-07-28T05:28:58;2.80;;;2.60;;
3901;SDS011;1966;49.908;9.156;2023-07-28T05:33:59;3.00;;;2.70;;
3901;SDS011;1966;49.908;9.156;2023-07-28T05:38:58;3.60;;;3.30;;
3901;SDS011;1966;49.908;9.156;2023-07-28T05:43:57;4.70;;;3.70;;
3901;SDS011;1966;49.908;9.156;2023-07-28T05:48:57;3.47;;;3.00;;
3901;SDS011;1966;49.908;9.156;2023-07-28T05:53:58;4.27;;;3.87;;
3901;SDS011;1966;49.908;9.156;2023-07-28T05:58:57;3.50;;;3.20;;
3901;SDS011;1966;49.908;9.156;2023-07-28T06:03:56;5.70;;;3.60;;
3901;SDS011;1966;49.908;9.156;2023-07-28T06:08:58;3.70;;;3.40;;
3901;SDS011;1966;49.908;9.156;2023-07-28T06:13:57;3.77;;;3.37;;
3901;SDS011;1966;49.908;9.156;2023-07-28T06:18:57;3.87;;;3.57;;
3901;SDS011;1966;49.908;9.156;2023-07-28T06:23:56;3.70;;;3.40;;
3901;SDS011;1966;49.908;9.156;2023-07-28T06:28:56;4.83;;;2.83;;
3901;SDS011;1966;49.908;9.156;2023-07-28T06:33:56;2.70;;;2.50;;
3901;SDS011;1966;49.908;9.156;2023-07-28T06:38:55;2.90;;;2.70;;
3901;SDS011;1966;49.908;9.156;2023-07-28T06:43:54;2.57;;;2.30;;
3901;SDS011;1966;49.908;9.156;2023-07-28T06:48:55;2.20;;;2.10;;
3901;SDS011;1966;49.908;9.156;2023-07-28T06:53:54;2.33;;;2.13;;
3901;SDS011;1966;49.908;9.156;2023-07-28T06:58:54;2.00;;;1.90;;
3901;SDS011;1966;49.908;9.156;2023-07-28T07:03:53;1.80;;;1.70;;
3901;SDS011;1966;49.908;9.156;2023-07-28T07:08:54;2.30;;;2.10;;
3901;SDS011;1966;49.908;9.156;2023-07-28T07:13:53;1.87;;;1.77;;
3901;SDS011;1966;49.908;9.156;2023-07-28T07:18:52;2.07;;;1.70;;
3901;SDS011;1966;49.908;9.156;2023-07-28T07:23:53;1.80;;;1.70;;
3901;SDS011;1966;49.908;9.156;2023-07-28T07:28:52;2.13;;;1.93;;
3901;SDS011;1966;49.908;9.156;2023-07-28T07:33:52;1.90;;;1.50;;
3901;SDS011;1966;49.908;9.156;2023-07-28T07:38:59;1.57;;;1.47;;
3901;SDS011;1966;49.908;9.156;2023-07-28T07:43:58;1.87;;;1.77;;
3901;SDS011;1966;49.908;9.156;2023-07-28T07:48:57;1.73;;;1.57;;
3901;SDS011;1966;49.908;9.156;2023-07-28T07:53:57;1.73;;;1.40;;
3901;SDS011;1966;49.908;9.156;2023-07-28T07:58:57;3.30;;;1.77;;
3901;SDS011;1966;49.908;9.156;2023-07-28T08:03:56;1.70;;;1.60;;
3901;SDS011;1966;49.908;9.156;2023-07-28T08:08:56;2.60;;;1.50;;
3901;SDS011;1966;49.908;9.156;2023-07-28T08:13:58;1.77;;;1.67;;
3901;SDS011;1966;49.908;9.156;2023-07-28T08:18:57;2.17;;;1.50;;
3901;SDS011;1966;49.908;9.156;2023-07-28T08:23:57;1.67;;;1.57;;
3901;SDS011;1966;49.908;9.156;2023-07-28T08:28:56;1.80;;;1.60;;
3901;SDS011;1966;49.908;9.156;2023-07-28T08:33:57;2.10;;;1.70;;
3901;SDS011;1966;49.908;9.156;2023-07-28T08:38:56;1.80;;;1.70;;
3901;SDS011;1966;49.908;9.156;2023-07-28T08:43:55;1.87;;;1.70;;
3901;SDS011;1966;49.908;9.156;2023-07-28T08:48:56;1.70;;;1.60;;
3901;SDS011;1966;49.908;9.156;2023-07-28T08:53:55;3.20;;;1.60;;
3901;SDS011;1966;49.908;9.156;2023-07-28T08:58:57;1.90;;;1.80;;
3901;SDS011;1966;49.908;9.156;2023-07-28T09:03:57;2.00;;;1.80;;
3901;SDS011;1966;49.908;9.156;2023-07-28T09:08:58;1.90;;;1.80;;
3901;SDS011;1966;49.908;9.156;2023-07-28T09:13:57;1.90;;;1.80;;
3901;SDS011;1966;49.908;9.156;2023-07-28T09:19:05;6.23;;;2.37;;
3901;SDS011;1966;49.908;9.156;2023-07-28T09:24:05;1.80;;;1.70;;
3901;SDS011;1966;49.908;9.156;2023-07-28T09:29:12;2.00;;;1.80;;
3901;SDS011;1966;49.908;9.156;2023-07-28T09:34:13;2.00;;;1.90;;
3901;SDS011;1966;49.908;9.156;2023-07-28T09:39:21;3.67;;;1.93;;
3901;SDS011;1966;49.908;9.156;2023-07-28T09:44:21;2.17;;;2.07;;
3901;SDS011;1966;49.908;9.156;2023-07-28T09:49:23;2.73;;;2.03;;
3901;SDS011;1966;49.908;9.156;2023-07-28T09:54:24;1.90;;;1.80;;
3901;SDS011;1966;49.908;9.156;2023-07-28T09:59:28;2.50;;;2.30;;
3901;SDS011;1966;49.908;9.156;2023-07-28T10:04:29;2.00;;;1.90;;
3901;SDS011;1966;49.908;9.156;2023-07-28T10:09:28;2.40;;;2.20;;
3901;SDS011;1966;49.908;9.156;2023-07-28T10:14:29;4.60;;;2.40;;
3901;SDS011;1966;49.908;9.156;2023-07-28T10:19:31;2.40;;;2.20;;
3901;SDS011;1966;49.908;9.156;2023-07-28T10:24:51;2.10;;;2.00;;
3901;SDS011;1966;49.908;9.156;2023-07-28T10:29:55;2.50;;;2.30;;
3901;SDS011;1966;49.908;9.156;2023-07-28T10:35:03;2.77;;;2.57;;
3901;SDS011;1966;49.908;9.156;2023-07-28T10:40:24;2.80;;;2.40;;
3901;SDS011;1966;49.908;9.156;2023-07-28T10:45:26;2.40;;;2.30;;
3901;SDS011;1966;49.908;9.156;2023-07-28T10:50:27;2.47;;;2.27;;
3901;SDS011;1966;49.908;9.156;2023-07-28T10:55:27;2.43;;;2.23;;
3901;SDS011;1966;49.908;9.156;2023-07-28T11:00:26;2.37;;;2.23;;
3901;SDS011;1966;49.908;9.156;2023-07-28T11:05:28;2.13;;;2.03;;
3901;SDS011;1966;49.908;9.156;2023-07-28T11:10:28;2.30;;;2.10;;
3901;SDS011;1966;49.908;9.156;2023-07-28T11:15:27;2.67;;;2.47;;
3901;SDS011;1966;49.908;9.156;2023-07-28T11:20:28;2.70;;;2.50;;
3901;SDS011;1966;49.908;9.156;2023-07-28T11:25:27;2.70;;;2.27;;
3901;SDS011;1966;49.908;9.156;2023-07-28T11:30:27;2.40;;;2.20;;
3901;SDS011;1966;49.908;9.156;2023-07-28T11:35:28;2.70;;;2.50;;
3901;SDS011;1966;49.908;9.156;2023-07-28T11:40:27;2.77;;;2.43;;
3901;SDS011;1966;49.908;9.156;2023-07-28T11:45:27;2.63;;;2.43;;
3901;SDS011;1966;49.908;9.156;2023-07-28T11:50:26;2.57;;;2.37;;
3901;SDS011;1966;49.908;9.156;2023-07-28T11:55:27;3.60;;;2.10;;
3901;SDS011;1966;49.908;9.156;2023-07-28T12:00:31;5.93;;;2.30;;
3901;SDS011;1966;49.908;9.156;2023-07-28T12:05:32;2.30;;;2.17;;
3901;SDS011;1966;49.908;9.156;2023-07-28T12:10:33;2.27;;;2.07;;
3901;SDS011;1966;49.908;9.156;2023-07-28T12:15:33;2.33;;;2.13;;
3901;SDS011;1966;49.908;9.156;2023-07-28T12:20:33;3.10;;;2.90;;
3901;SDS011;1966;49.908;9.156;2023-07-28T12:25:34;2.10;;;1.90;;
3901;SDS011;1966;49.908;9.156;2023-07-28T12:30:34;2.40;;;2.27;;
3901;SDS011;1966;49.908;9.156;2023-07-28T12:35:34;2.63;;;2.43;;
3901;SDS011;1966;49.908;9.156;2023-07-28T12:40:34;3.03;;;2.33;;
3901;SDS011;1966;49.908;9.156;2023-07-28T12:45:34;6.67;;;2.07;;
3901;SDS011;1966;49.908;9.156;2023-07-28T12:50:33;4.00;;;2.30;;
3901;SDS011;1966;49.908;9.156;2023-07-28T12:55:34;2.57;;;2.37;;
3901;SDS011;1966;49.908;9.156;2023-07-28T13:00:35;2.07;;;1.97;;
3901;SDS011;1966;49.908;9.156;2023-07-28T13:05:34;2.53;;;2.33;;
3901;SDS011;1966;49.908;9.156;2023-07-28T13:10:35;2.40;;;2.20;;
3901;SDS011;1966;49.908;9.156;2023-07-28T13:15:34;2.43;;;2.20;;
3901;SDS011;1966;49.908;9.156;2023-07-28T13:20:33;2.83;;;2.20;;
3901;SDS011;1966;49.908;9.156;2023-07-28T13:25:32;5.20;;;2.13;;
3901;SDS011;1966;49.908;9.156;2023-07-28T13:30:33;2.90;;;2.37;;
3901;SDS011;1966;49.908;9.156;2023-07-28T13:35:32;2.50;;;2.30;;
3901;SDS011;1966;49.908;9.156;2023-07-28T13:40:31;2.53;;;2.33;;
3901;SDS011;1966;49.908;9.156;2023-07-28T13:45:31;2.40;;;2.20;;
3901;SDS011;1966;49.908;9.156;2023-07-28T13:50:31;4.20;;;2.40;;
3901;SDS011;1966;49.908;9.156;2023-07-28T13:55:31;2.93;;;2.73;;
3901;SDS011;1966;49.908;9.156;2023-07-28T14:00:30;12.17;;;2.97;;
3901;SDS011;1966;49.908;9.156;2023-07-28T14:05:29;3.53;;;3.20;;
3901;SDS011;1966;49.908;9.156;2023-07-28T14:10:30;2.83;;;2.63;;
3901;SDS011;1966;49.908;9.156;2023-07-28T14:15:30;3.17;;;2.97;;
3901;SDS011;1966;49.908;9.156;2023-07-28T14:20:29;2.80;;;2.60;;
3901;SDS011;1966;49.908;9.156;2023-07-28T14:25:30;3.07;;;2.87;;
3901;SDS011;1966;49.908;9.156;2023-07-28T14:30:29;2.80;;;2.60;;
3901;SDS011;1966;49.908;9.156;2023-07-28T14:35:28;2.80;;;2.60;;
3901;SDS011;1966;49.908;9.156;2023-07-28T14:40:27;2.40;;;2.20;;
3901;SDS011;1966;49.908;9.156;2023-07-28T14:45:28;2.80;;;2.60;;
3901;SDS011;1966;49.908;9.156;2023-07-28T14:50:27;2.40;;;2.20;;
3901;SDS011;1966;49.908;9.156;2023-07-28T14:55:26;2.60;;;2.40;;
3901;SDS011;1966;49.908;9.156;2023-07-28T15:00:26;2.93;;;2.60;;
3901;SDS011;1966;49.908;9.156;2023-07-28T15:05:26;3.73;;;3.10;;
3901;SDS011;1966;49.908;9.156;2023-07-28T15:10:25;2.80;;;2.60;;
3901;SDS011;1966;49.908;9.156;2023-07-28T15:15:25;2.17;;;1.97;;
3901;SDS011;1966;49.908;9.156;2023-07-28T15:20:24;2.10;;;2.00;;
3901;SDS011;1966;49.908;9.156;2023-07-28T15:25:24;3.43;;;3.13;;
3901;SDS011;1966;49.908;9.156;2023-07-28T15:30:24;3.63;;;2.20;;
3901;SDS011;1966;49.908;9.156;2023-07-28T15:35:23;2.47;;;2.27;;
3901;SDS011;1966;49.908;9.156;2023-07-28T15:40:22;2.10;;;1.90;;
3901;SDS011;1966;49.908;9.156;2023-07-28T15:45:23;1.77;;;1.67;;
3901;SDS011;1966;49.908;9.156;2023-07-28T15:50:22;2.70;;;1.50;;
3901;SDS011;1966;49.908;9.156;2023-07-28T15:55:21;1.67;;;1.57;;
3901;SDS011;1966;49.908;9.156;2023-07-28T16:00:22;1.70;;;1.60;;
3901;SDS011;1966;49.908;9.156;2023-07-28T16:05:21;1.77;;;1.67;;
3901;SDS011;1966;49.908;9.156;2023-07-28T16:10:21;2.13;;;1.10;;
3901;SDS011;1966;49.908;9.156;2023-07-28T16:15:20;1.40;;;1.30;;
3901;SDS011;1966;49.908;9.156;2023-07-28T16:20:21;1.37;;;1.27;;
3901;SDS011;1966;49.908;9.156;2023-07-28T16:25:21;1.30;;;1.20;;
3901;SDS011;1966;49.908;9.156;2023-07-28T16:30:21;1.30;;;1.20;;
3901;SDS011;1966;49.908;9.156;2023-07-28T16:35:22;1.40;;;1.30;;
3901;SDS011;1966;49.908;9.156;2023-07-28T16:40:21;1.33;;;1.23;;
3901;SDS011;1966;49.908;9.156;2023-07-28T16:45:20;1.30;;;1.20;;
3901;SDS011;1966;49.908;9.156;2023-07-28T16:50:19;1.47;;;1.37;;
3901;SDS011;1966;49.908;9.156;2023-07-28T16:55:20;1.40;;;1.30;;
3901;SDS011;1966;49.908;9.156;2023-07-28T17:00:19;1.10;;;1.10;;
3901;SDS011;1966;49.908;9.156;2023-07-28T17:05:19;1.30;;;1.20;;
3901;SDS011;1966;49.908;9.156;2023-07-28T17:10:20;1.40;;;1.30;;
3901;SDS011;1966;49.908;9.156;2023-07-28T17:15:19;1.40;;;1.30;;
3901;SDS011;1966;49.908;9.156;2023-07-28T17:20:18;1.40;;;1.30;;
3901;SDS011;1966;49.908;9.156;2023-07-28T17:25:20;1.50;;;1.40;;
3901;SDS011;1966;49.908;9.156;2023-07-28T17:30:21;7.30;;;1.70;;
3901;SDS011;1966;49.908;9.156;2023-07-28T17:35:20;1.60;;;1.50;;
3901;SDS011;1966;49.908;9.156;2023-07-28T17:40:19;1.50;;;1.40;;
3901;SDS011;1966;49.908;9.156;2023-07-28T17:45:20;1.67;;;1.57;;
3901;SDS011;1966;49.908;9.156;2023-07-28T17:50:19;1.63;;;1.53;;
3901;SDS011;1966;49.908;9.156;2023-07-28T17:55:19;1.70;;;1.60;;
3901;SDS011;1966;49.908;9.156;2023-07-28T18:00:18;1.70;;;1.60;;
3901;SDS011;1966;49.908;9.156;2023-07-28T18:05:19;2.63;;;1.63;;
3901;SDS011;1966;49.908;9.156;2023-07-28T18:10:18;1.70;;;1.60;;
3901;SDS011;1966;49.908;9.156;2023-07-28T18:15:18;1.67;;;1.57;;
3901;SDS011;1966;49.908;9.156;2023-07-28T18:20:17;1.40;;;1.30;;
3901;SDS011;1966;49.908;9.156;2023-07-28T18:25:18;2.60;;;1.57;;
3901;SDS011;1966;49.908;9.156;2023-07-28T18:30:17;1.90;;;1.80;;
3901;SDS011;1966;49.908;9.156;2023-07-28T18:35:16;1.80;;;1.70;;
3901;SDS011;1966;49.908;9.156;2023-07-28T18:40:17;1.90;;;1.80;;
3901;SDS011;1966;49.908;9.156;2023-07-28T18:45:17;2.03;;;1.90;;
3901;SDS011;1966;49.908;9.156;2023-07-28T18:50:16;1.93;;;1.80;;
3901;SDS011;1966;49.908;9.156;2023-07-28T18:55:15;2.73;;;2.53;;
3901;SDS011;1966;49.908;9.156;2023-07-28T19:00:16;3.10;;;2.80;;
3901;SDS011;1966;49.908;9.156;2023-07-28T19:05:15;2.90;;;2.70;;
3901;SDS011;1966;49.908;9.156;2023-07-28T19:10:14;5.93;;;4.10;;
3901;SDS011;1966;49.908;9.156;2023-07-28T19:15:15;2.93;;;2.73;;
3901;SDS011;1966;49.908;9.156;2023-07-28T19:20:14;3.10;;;2.90;;
3901;SDS011;1966;49.908;9.156;2023-07-28T19:25:17;4.23;;;3.33;;
3901;SDS011;1966;49.908;9.156;2023-07-28T19:30:18;3.67;;;3.23;;
3901;SDS011;1966;49.908;9.156;2023-07-28T19:35:17;3.50;;;3.20;;
3901;SDS011;1966;49.908;9.156;2023-07-28T19:40:17;3.23;;;2.97;;
3901;SDS011;1966;49.908;9.156;2023-07-28T19:45:17;3.50;;;3.20;;
3901;SDS011;1966;49.908;9.156;2023-07-28T19:50:17;3.77;;;3.43;;
3901;SDS011;1966;49.908;9.156;2023-07-28T19:55:16;4.20;;;3.80;;
3901;SDS011;1966;49.908;9.156;2023-07-28T20:00:17;4.27;;;3.87;;
3901;SDS011;1966;49.908;9.156;2023-07-28T20:05:16;3.53;;;3.23;;
3901;SDS011;1966;49.908;9.156;2023-07-28T20:10:15;4.20;;;3.80;;
3901;SDS011;1966;49.908;9.156;2023-07-28T20:15:15;3.57;;;3.23;;
3901;SDS011;1966;49.908;9.156;2023-07-28T20:20:15;5.30;;;3.40;;
3901;SDS011;1966;49.908;9.156;2023-07-28T20:25:15;3.37;;;3.10;;
3901;SDS011;1966;49.908;9.156;2023-07-28T20:30:14;3.00;;;2.67;;
3901;SDS011;1966;49.908;9.156;2023-07-28T20:35:17;3.20;;;3.00;;
3901;SDS011;1966;49.908;9.156;2023-07-28T20:40:16;3.03;;;2.77;;
3901;SDS011;1966;49.908;9.156;2023-07-28T20:45:15;3.10;;;2.80;;
3901;SDS011;1966;49.908;9.156;2023-07-28T20:50:16;3.67;;;2.77;;
3901;SDS011;1966;49.908;9.156;2023-07-28T20:55:15;2.83;;;2.63;;
3901;SDS011;1966;49.908;9.156;2023-07-28T21:00:15;3.57;;;2.90;;
3901;SDS011;1966;49.908;9.156;2023-07-28T21:05:14;3.10;;;2.90;;
3901;SDS011;1966;49.908;9.156;2023-07-28T21:10:15;2.87;;;2.67;;
3901;SDS011;1966;49.908;9.156;2023-07-28T21:15:14;3.23;;;2.93;;
3901;SDS011;1966;49.908;9.156;2023-07-28T21:20:13;3.10;;;2.80;;
3901;SDS011;1966;49.908;9.156;2023-07-28T21:25:14;2.87;;;2.67;;
3901;SDS011;1966;49.908;9.156;2023-07-28T21:30:13;2.70;;;2.50;;
3901;SDS011;1966;49.908;9.156;2023-07-28T21:35:13;2.90;;;2.57;;
3901;SDS011;1966;49.908;9.156;2023-07-28T21:40:12;7.30;;;2.43;;
3901;SDS011;1966;49.908;9.156;2023-07-28T21:45:12;2.83;;;2.63;;
3901;SDS011;1966;49.908;9.156;2023-07-28T21:50:12;3.17;;;2.87;;
3901;SDS011;1966;49.908;9.156;2023-07-28T21:55:11;3.33;;;3.03;;
3901;SDS011;1966;49.908;9.156;2023-07-28T22:00:13;3.73;;;3.10;;
3901;SDS011;1966;49.908;9.156;2023-07-28T22:05:13;3.10;;;2.87;;
3901;SDS011;1966;49.908;9.156;2023-07-28T22:10:13;3.27;;;2.97;;
3901;SDS011;1966;49.908;9.156;2023-07-28T22:15:14;3.53;;;3.23;;
3901;SDS011;1966;49.908;9.156;2023-07-28T22:20:13;6.33;;;3.17;;
3901;SDS011;1966;49.908;9.156;2023-07-28T22:25:12;6.67;;;3.53;;
3901;SDS011;1966;49.908;9.156;2023-07-28T22:30:11;3.30;;;3.03;;
3901;SDS011;1966;49.908;9.156;2023-07-28T22:35:12;3.40;;;3.10;;
3901;SDS011;1966;49.908;9.156;2023-07-28T22:40:11;3.20;;;2.90;;
3901;SDS011;1966;49.908;9.156;2023-07-28T22:45:10;3.63;;;3.10;;
3901;SDS011;1966;49.908;9.156;2023-07-28T22:50:10;4.10;;;3.70;;
3901;SDS011;1966;49.908;9.156;2023-07-28T22:55:10;3.30;;;3.10;;
3901;SDS011;1966;49.908;9.156;2023-07-28T23:00:11;3.73;;;3.43;;
3901;SDS011;1966;49.908;9.156;2023-07-28T23:05:11;3.93;;;3.53;;
3901;SDS011;1966;49.908;9.156;2023-07-28T23:10:11;3.10;;;2.90;;
3901;SDS011;1966;49.908;9.156;2023-07-28T23:15:14;3.60;;;3.30;;
3901;SDS011;1966;49.908;9.156;2023-07-28T23:20:13;5.23;;;3.33;;
3901;SDS011;1966;49.908;9.156;2023-07-28T23:25:14;4.57;;;3.67;;
3901;SDS011;1966;49.908;9.156;2023-07-28T23:30:13;3.40;;;3.10;;
3901;SDS011;1966;49.908;9.156;2023-07-28T23:35:13;5.17;;;3.30;;
3901;SDS011;1966;49.908;9.156;2023-07-28T23:40:13;3.90;;;3.50;;
3901;SDS011;1966;49.908;9.156;2023-07-28T23:45:13;3.90;;;3.57;;
3901;SDS011;1966;49.908;9.156;2023-07-28T23:50:12;3.70;;;3.40;;
3901;SDS011;1966;49.908;9.156;2023-07-28T23:55:13;4.10;;;3.07;;
